createdAt,value
2016-08-18T06:36:51.831Z,1000.96
2016-08-18T06:37:51.631Z,1000.94
2016-08-18T06:38:51.458Z,1000.95
2016-08-18T06:39:51.406Z,1000.94
2016-08-18T06:40:51.661Z,1000.96
2016-08-18T06:41:51.415Z,1000.94
2016-08-18T06:42:51.590Z,1000.98
2016-08-18T06:43:51.487Z,1000.99
2016-08-18T06:44:51.546Z,1000.99
2016-08-18T06:45:51.698Z,1000.98
2016-08-18T06:46:51.935Z,1000.96
2016-08-18T06:47:51.483Z,1000.95
2016-08-18T06:48:51.895Z,1000.93
2016-08-18T06:49:51.870Z,1000.93
2016-08-18T06:50:51.642Z,1000.9
2016-08-18T06:51:51.445Z,1000.88
2016-08-18T06:52:51.591Z,1000.91
2016-08-18T06:53:51.655Z,1000.87
2016-08-18T06:54:51.889Z,1000.94
2016-08-18T06:55:51.843Z,1000.96
2016-08-18T06:56:51.789Z,1000.96
2016-08-18T06:57:52.178Z,1000.92
2016-08-18T06:58:51.924Z,1000.91
2016-08-18T06:59:51.843Z,1000.86
2016-08-18T07:00:52.295Z,1000.9
2016-08-18T07:01:51.803Z,1000.92
2016-08-18T07:02:51.774Z,1000.94
2016-08-18T07:03:52.008Z,1000.94
2016-08-18T07:04:51.889Z,1000.97
2016-08-18T07:05:51.810Z,1000.94
2016-08-18T07:06:52.371Z,1001.03
2016-08-18T07:07:51.820Z,1001
2016-08-18T07:08:52.364Z,1001
2016-08-18T07:09:52.206Z,1000.95
2016-08-18T07:10:51.991Z,1000.93
2016-08-18T07:11:53.321Z,1000.92
2016-08-18T07:12:52.222Z,1000.94
2016-08-18T07:13:52.219Z,1000.92
2016-08-18T07:14:52.429Z,1000.89
2016-08-18T07:15:52.405Z,1000.86
2016-08-18T07:16:52.269Z,1000.92
2016-08-18T07:17:52.181Z,1000.94
2016-08-18T07:18:52.432Z,1000.96
2016-08-18T07:19:52.374Z,1000.94
2016-08-18T07:20:52.363Z,1000.93
2016-08-18T07:21:52.755Z,1000.99
2016-08-18T07:22:52.328Z,1001
2016-08-18T07:23:53.039Z,1000.94
2016-08-18T07:24:52.506Z,1000.95
2016-08-18T07:25:53.055Z,1000.93
2016-08-18T07:26:53.946Z,1000.93
2016-08-18T07:27:52.673Z,1000.95
2016-08-18T07:28:52.996Z,1000.91
2016-08-18T07:29:52.725Z,1000.9
2016-08-18T07:30:53.071Z,1000.9
2016-08-18T07:31:52.855Z,1000.89
2016-08-18T07:32:53.068Z,1000.92
2016-08-18T07:33:52.718Z,1000.93
2016-08-18T07:34:53.023Z,1000.93
2016-08-18T07:35:52.674Z,1000.89
2016-08-18T07:36:52.771Z,1000.89
2016-08-18T07:37:52.668Z,1000.9
2016-08-18T07:38:53.013Z,1000.9
2016-08-18T07:39:53.003Z,1000.87
2016-08-18T07:40:52.904Z,1000.88
2016-08-18T07:41:52.944Z,1000.9
2016-08-18T07:42:52.863Z,1000.87
2016-08-18T07:43:53.051Z,1000.86
2016-08-18T07:44:53.176Z,1000.86
2016-08-18T07:45:53.387Z,1000.86
2016-08-18T07:46:52.938Z,1000.91
2016-08-18T07:47:53.554Z,1000.9
2016-08-18T07:48:52.918Z,1000.91
2016-08-18T07:49:53.383Z,1000.87
2016-08-18T07:50:53.302Z,1000.77
2016-08-18T07:51:53.122Z,1000.82
2016-08-18T07:52:53.154Z,1000.75
2016-08-18T07:53:53.106Z,1000.74
2016-08-18T07:54:53.231Z,1000.76
2016-08-18T07:55:53.238Z,1000.72
2016-08-18T07:56:53.291Z,1000.72
2016-08-18T07:57:53.569Z,1000.67
2016-08-18T07:58:53.085Z,1000.65
2016-08-18T07:59:53.540Z,1000.68
2016-08-18T08:00:53.227Z,1000.67
2016-08-18T08:01:53.593Z,1000.68
2016-08-18T08:02:53.527Z,1000.69
2016-08-18T08:03:53.658Z,1000.76
2016-08-18T08:04:54.052Z,1000.71
2016-08-18T08:05:53.502Z,1000.73
2016-08-18T08:06:53.351Z,1000.74
2016-08-18T08:07:54.269Z,1000.71
2016-08-18T08:08:53.866Z,1000.74
2016-08-18T08:09:53.667Z,1000.78
2016-08-18T08:10:53.455Z,1000.82
2016-08-18T08:11:54.049Z,1000.82
2016-08-18T08:12:53.656Z,1000.83
2016-08-18T08:13:53.616Z,1000.86
2016-08-18T08:14:53.840Z,1000.88
2016-08-18T08:15:54.586Z,1000.85
2016-08-18T08:16:54.051Z,1000.88
2016-08-18T08:17:54.146Z,1000.83
2016-08-18T08:18:53.969Z,1000.82
2016-08-18T08:19:54.024Z,1000.83
2016-08-18T08:20:54.319Z,1000.84
2016-08-18T08:21:53.792Z,1000.81
2016-08-18T08:22:54.189Z,1000.78
2016-08-18T08:23:54.703Z,1000.76
2016-08-18T08:24:53.864Z,1000.75
2016-08-18T08:25:54.324Z,1000.74
2016-08-18T08:26:53.983Z,1000.77
2016-08-18T08:27:54.458Z,1000.77
2016-08-18T08:28:54.314Z,1000.78
2016-08-18T08:29:54.490Z,1000.77
2016-08-18T08:30:54.244Z,1000.76
2016-08-18T08:31:54.134Z,1000.77
2016-08-18T08:32:54.778Z,1000.74
2016-08-18T08:33:54.654Z,1000.76
2016-08-18T08:34:54.029Z,1000.77
2016-08-18T08:35:54.666Z,1000.79
2016-08-18T08:36:54.921Z,1000.79
2016-08-18T08:37:54.374Z,1000.79
2016-08-18T08:38:54.768Z,1000.79
2016-08-18T08:39:54.577Z,1000.82
2016-08-18T08:40:54.823Z,1000.81
2016-08-18T08:41:54.605Z,1000.8
2016-08-18T08:42:54.363Z,1000.8
2016-08-18T08:43:54.994Z,1000.83
2016-08-18T08:44:55.391Z,1000.83
2016-08-18T08:45:54.747Z,1000.81
2016-08-18T08:46:54.787Z,1000.76
2016-08-18T08:47:55.113Z,1000.76
2016-08-18T08:48:54.898Z,1000.81
2016-08-18T08:49:54.729Z,1000.79
2016-08-18T08:50:54.782Z,1000.78
2016-08-18T08:51:54.999Z,1000.83
2016-08-18T08:52:55.089Z,1000.77
2016-08-18T08:53:55.197Z,1000.83
2016-08-18T08:54:55.054Z,1000.81
2016-08-18T08:55:54.885Z,1000.79
2016-08-18T08:56:54.755Z,1000.78
2016-08-18T08:57:55.250Z,1000.77
2016-08-18T08:58:55.567Z,1000.8
2016-08-18T08:59:55.149Z,1000.81
2016-08-18T09:00:55.350Z,1000.78
2016-08-18T09:01:55.395Z,1000.71
2016-08-18T09:02:55.208Z,1000.75
2016-08-18T09:03:55.532Z,1000.77
2016-08-18T09:04:55.443Z,1000.75
2016-08-18T09:05:56.440Z,1000.8
2016-08-18T09:06:55.656Z,1000.76
2016-08-18T09:07:55.283Z,1000.79
2016-08-18T09:08:55.306Z,1000.79
2016-08-18T09:09:55.256Z,1000.8
2016-08-18T09:10:55.333Z,1000.86
2016-08-18T09:11:55.539Z,1000.89
2016-08-18T09:12:55.247Z,1000.83
2016-08-18T09:13:55.199Z,1000.82
2016-08-18T09:14:55.708Z,1000.84
2016-08-18T09:15:55.374Z,1000.81
2016-08-18T09:16:56.495Z,1000.79
2016-08-18T09:17:56.232Z,1000.78
2016-08-18T09:18:55.420Z,1000.77
2016-08-18T09:19:55.827Z,1000.76
2016-08-18T09:20:55.473Z,1000.8
2016-08-18T09:21:55.841Z,1000.75
2016-08-18T09:22:55.774Z,1000.8
2016-08-18T09:23:57.095Z,1000.77
2016-08-18T09:24:56.101Z,1000.79
2016-08-18T09:25:55.975Z,1000.77
2016-08-18T09:26:55.739Z,1000.8
2016-08-18T09:27:55.719Z,1000.79
2016-08-18T09:28:56.364Z,1000.77
2016-08-18T09:29:56.051Z,1000.75
2016-08-18T09:30:56.031Z,1000.76
2016-08-18T09:31:56.727Z,1000.77
2016-08-18T09:32:56.090Z,1000.79
2016-08-18T09:33:56.637Z,1000.78
2016-08-18T09:34:56.440Z,1000.8
2016-08-18T09:35:56.147Z,1000.78
2016-08-18T09:36:56.532Z,1000.76
2016-08-18T09:37:56.114Z,1000.78
2016-08-18T09:38:56.131Z,1000.8
2016-08-18T09:39:56.934Z,1000.79
2016-08-18T09:40:57.040Z,1000.8
2016-08-18T09:41:56.747Z,1000.73
2016-08-18T09:42:56.729Z,1000.69
2016-08-18T09:43:56.821Z,1000.68
2016-08-18T09:44:56.821Z,1000.6
2016-08-18T09:45:56.571Z,1000.55
2016-08-18T09:46:56.292Z,1000.54
2016-08-18T09:47:56.910Z,1000.58
2016-08-18T09:48:56.690Z,1000.6
2016-08-18T09:49:56.989Z,1000.58
2016-08-18T09:50:56.959Z,1000.63
2016-08-18T09:51:56.970Z,1000.65
2016-08-18T09:52:57.314Z,1000.64
2016-08-18T09:53:57.427Z,1000.56
2016-08-18T09:54:57.426Z,1000.55
2016-08-18T09:55:57.036Z,1000.59
2016-08-18T09:56:57.223Z,1000.61
2016-08-18T09:57:57.196Z,1000.56
2016-08-18T09:58:57.335Z,1000.55
2016-08-18T09:59:57.216Z,1000.55
2016-08-18T10:00:57.306Z,1000.52
2016-08-18T10:01:57.303Z,1000.47
2016-08-18T10:02:57.801Z,1000.44
2016-08-18T10:03:57.545Z,1000.42
2016-08-18T10:05:00.583Z,1000.49
2016-08-18T10:05:57.436Z,1000.54
2016-08-18T10:06:57.350Z,1000.51
2016-08-18T10:07:57.915Z,1000.56
2016-08-18T10:08:57.698Z,1000.49
2016-08-18T10:09:57.567Z,1000.47
2016-08-18T10:10:57.334Z,1000.54
2016-08-18T10:11:57.861Z,1000.52
2016-08-18T10:12:57.689Z,1000.43
2016-08-18T10:13:57.772Z,1000.55
2016-08-18T10:14:58.095Z,1000.5
2016-08-18T10:15:57.419Z,1000.46
2016-08-18T10:16:58.005Z,1000.5
2016-08-18T10:17:57.664Z,1000.46
2016-08-18T10:18:57.465Z,1000.48
2016-08-18T10:19:57.741Z,1000.51
2016-08-18T10:20:58.140Z,1000.51
2016-08-18T10:21:58.291Z,1000.5
2016-08-18T10:22:57.987Z,1000.49
2016-08-18T10:23:58.298Z,1000.5
2016-08-18T10:24:57.992Z,1000.48
2016-08-18T10:25:57.957Z,1000.48
2016-08-18T10:26:58.185Z,1000.47
2016-08-18T10:27:58.279Z,1000.46
2016-08-18T10:28:58.787Z,1000.53
2016-08-18T10:29:57.900Z,1000.53
2016-08-18T10:30:58.096Z,1000.58
2016-08-18T10:31:59.104Z,1000.56
2016-08-18T10:32:58.674Z,1000.49
2016-08-18T10:33:58.630Z,1000.48
2016-08-18T10:34:58.574Z,1000.48
2016-08-18T10:35:58.728Z,1000.47
2016-08-18T10:36:58.094Z,1000.47
2016-08-18T10:37:58.334Z,1000.43
2016-08-18T10:38:58.848Z,1000.45
2016-08-18T10:39:58.723Z,1000.46
2016-08-18T10:40:58.517Z,1000.49
2016-08-18T10:41:58.788Z,1000.5
2016-08-18T10:42:59.169Z,1000.44
2016-08-18T10:43:58.422Z,1000.47
2016-08-18T10:44:58.804Z,1000.47
2016-08-18T10:45:58.939Z,1000.45
2016-08-18T10:46:58.921Z,1000.49
2016-08-18T10:47:58.932Z,1000.51
2016-08-18T10:48:58.842Z,1000.47
2016-08-18T10:49:58.663Z,1000.4
2016-08-18T10:50:59.092Z,1000.43
2016-08-18T10:51:59.195Z,1000.41
2016-08-18T10:52:58.907Z,1000.43
2016-08-18T10:53:59.372Z,1000.41
2016-08-18T10:54:59.003Z,1000.41
2016-08-18T10:55:59.720Z,1000.45
2016-08-18T10:56:59.383Z,1000.45
2016-08-18T10:57:59.203Z,1000.48
2016-08-18T10:58:59.394Z,1000.47
2016-08-18T10:59:59.347Z,1000.36
2016-08-18T11:00:59.228Z,1000.34
2016-08-18T11:01:59.594Z,1000.29
2016-08-18T11:02:59.690Z,1000.24
2016-08-18T11:03:59.876Z,1000.29
2016-08-18T11:04:59.837Z,1000.23
2016-08-18T11:05:59.755Z,1000.21
2016-08-18T11:06:59.533Z,1000.18
2016-08-18T11:07:59.622Z,1000.2
2016-08-18T11:08:59.511Z,1000.19
2016-08-18T11:09:59.687Z,1000.18
2016-08-18T11:11:00.056Z,1000.18
2016-08-18T11:11:59.640Z,1000.11
2016-08-18T11:12:59.825Z,1000.15
2016-08-18T11:14:00.609Z,1000.06
2016-08-18T11:15:00.219Z,1000.11
2016-08-18T11:16:00.076Z,1000.11
2016-08-18T11:16:59.798Z,1000.09
2016-08-18T11:18:00.212Z,1000.09
2016-08-18T11:19:00.428Z,1000.14
2016-08-18T11:19:59.947Z,1000.1
2016-08-18T11:21:00.215Z,1000.11
2016-08-18T11:22:00.382Z,1000.14
2016-08-18T11:23:00.187Z,1000.13
2016-08-18T11:24:00.017Z,1000.13
2016-08-18T11:25:00.136Z,1000.1
2016-08-18T11:26:00.021Z,1000.11
2016-08-18T11:27:00.166Z,1000.11
2016-08-18T11:28:00.514Z,1000.08
2016-08-18T11:29:00.482Z,1000.05
2016-08-18T11:30:00.647Z,1000.04
2016-08-18T11:31:00.335Z,1000.02
2016-08-18T11:32:00.415Z,1000.03
2016-08-18T11:33:00.552Z,1000.01
2016-08-18T11:34:00.869Z,999.93
2016-08-18T11:35:00.589Z,999.95
2016-08-18T11:36:00.595Z,999.99
2016-08-18T11:37:00.350Z,1000.01
2016-08-18T11:38:00.605Z,1000
2016-08-18T11:39:00.866Z,999.97
2016-08-18T11:40:00.736Z,1000.04
2016-08-18T11:41:00.801Z,1000.03
2016-08-18T11:42:00.570Z,1000.03
2016-08-18T11:43:01.010Z,1000.04
2016-08-18T11:44:00.814Z,1000.03
2016-08-18T11:45:01.316Z,1000.01
2016-08-18T11:46:01.076Z,1000.1
2016-08-18T11:47:00.902Z,1000.11
2016-08-18T11:48:01.308Z,1000.08
2016-08-18T11:49:01.238Z,1000.08
2016-08-18T11:50:05.047Z,1000.09
2016-08-18T11:51:01.419Z,1000.05
2016-08-18T11:52:01.139Z,1000
2016-08-18T11:53:01.134Z,1000.03
2016-08-18T11:54:01.722Z,999.99
2016-08-18T11:55:01.387Z,999.97
2016-08-18T11:56:01.287Z,999.98
2016-08-18T11:57:01.142Z,999.97
2016-08-18T12:11:45.069Z,1000.24
2016-08-18T12:12:44.642Z,1000.24
2016-08-18T12:13:45.449Z,1000.19
2016-08-18T12:14:45.856Z,1000.15
2016-08-18T12:15:45.591Z,1000.04
2016-08-18T12:16:45.549Z,1000.05
2016-08-18T12:17:46.284Z,1000.09
2016-08-18T12:18:45.678Z,1000.07
2016-08-18T12:19:46.064Z,1000.02
2016-08-18T12:20:45.649Z,999.85
2016-08-18T12:21:45.917Z,999.87
2016-08-18T12:22:46.043Z,1000.1
2016-08-18T12:23:45.841Z,1000.1
2016-08-18T12:24:46.142Z,1000
2016-08-18T12:25:46.046Z,999.86
2016-08-18T12:26:45.927Z,1000.08
2016-08-18T12:27:46.096Z,1000.18
2016-08-18T12:28:46.293Z,1000.11
2016-08-18T12:29:46.578Z,1000.08
2016-08-18T12:30:46.456Z,1000.02
2016-08-18T12:31:46.108Z,1000.1
2016-08-18T12:32:46.049Z,1000.26
2016-08-18T12:33:46.791Z,1000.24
2016-08-18T12:34:46.662Z,1000.15
2016-08-18T12:35:46.776Z,1000.17
2016-08-18T12:36:47.175Z,1000.06
2016-08-18T12:37:46.779Z,999.92
2016-08-18T12:38:46.455Z,999.88
2016-08-18T12:39:46.822Z,999.9
2016-08-18T12:40:46.612Z,1000.11
2016-08-18T12:41:46.629Z,999.96
2016-08-18T12:42:46.442Z,999.91
2016-08-18T12:43:46.645Z,999.86
2016-08-18T12:44:46.963Z,999.82
2016-08-18T12:45:46.723Z,999.98
2016-08-18T12:46:46.925Z,1000.19
2016-08-18T12:47:47.361Z,1000
2016-08-18T12:48:47.288Z,999.85
2016-08-18T12:49:46.876Z,999.92
2016-08-18T12:50:47.308Z,1000.08
2016-08-18T12:51:47.268Z,1000
2016-08-18T12:52:47.413Z,999.96
2016-08-18T12:53:47.915Z,999.9
2016-08-18T12:54:47.472Z,1000.07
2016-08-18T12:55:47.540Z,999.92
2016-08-18T12:56:47.655Z,999.97
2016-08-18T12:57:48.249Z,1000.01
2016-08-18T12:58:47.475Z,999.79
2016-08-18T12:59:47.561Z,999.91
2016-08-18T13:00:47.350Z,1000.02
2016-08-18T13:01:48.006Z,1000
2016-08-18T13:02:47.354Z,1000.06
2016-08-18T13:03:48.244Z,999.95
2016-08-18T13:04:47.749Z,999.78
2016-08-18T13:05:48.669Z,999.76
2016-08-18T13:06:48.354Z,999.78
2016-08-18T13:07:47.894Z,1000.06
2016-08-18T13:08:48.044Z,999.85
2016-08-18T13:09:47.876Z,999.6
2016-08-18T13:10:48.356Z,999.82
2016-08-18T13:11:48.405Z,999.73
2016-08-18T13:12:48.087Z,999.54
2016-08-18T13:13:47.685Z,999.67
2016-08-18T13:14:48.359Z,999.65
2016-08-18T13:15:48.055Z,999.89
2016-08-18T13:16:48.050Z,999.82
2016-08-18T13:17:47.878Z,999.7
2016-08-18T13:18:48.344Z,999.58
2016-08-18T13:19:48.917Z,999.64
2016-08-18T13:20:47.991Z,999.72
2016-08-18T13:21:48.171Z,999.66
2016-08-18T13:22:48.344Z,999.74
2016-08-18T13:23:48.443Z,999.81
2016-08-18T13:24:48.322Z,999.77
2016-08-18T13:25:48.439Z,999.66
2016-08-18T13:26:48.374Z,999.62
2016-08-18T13:27:48.214Z,999.55
2016-08-18T13:28:48.360Z,999.76
2016-08-18T13:29:48.299Z,999.75
2016-08-18T13:30:48.700Z,999.77
2016-08-18T13:31:48.657Z,999.78
2016-08-18T13:32:48.702Z,999.77
2016-08-18T13:33:48.619Z,999.76
2016-08-18T13:34:49.330Z,999.65
2016-08-18T13:35:48.861Z,999.74
2016-08-18T13:36:48.818Z,999.59
2016-08-18T13:37:48.896Z,999.46
2016-08-18T13:38:48.796Z,999.76
2016-08-18T13:39:48.997Z,999.74
2016-08-18T13:40:48.917Z,999.85
2016-08-18T13:41:49.064Z,999.62
2016-08-18T13:42:49.127Z,999.53
2016-08-18T13:43:49.132Z,999.52
2016-08-18T13:44:49.313Z,999.75
2016-08-18T13:45:49.573Z,1000.01
2016-08-18T13:46:49.220Z,999.81
2016-08-18T13:47:49.156Z,999.74
2016-08-18T13:48:49.965Z,999.8
2016-08-18T13:49:49.210Z,999.82
2016-08-18T13:50:49.745Z,999.63
2016-08-18T13:51:49.510Z,999.52
2016-08-18T13:52:49.676Z,999.51
2016-08-18T13:53:49.553Z,999.47
2016-08-18T13:54:50.303Z,999.62
2016-08-18T13:55:49.926Z,999.56
2016-08-18T13:56:49.707Z,999.62
2016-08-18T13:57:50.087Z,999.8
2016-08-18T13:58:50.639Z,999.6
2016-08-18T13:59:50.117Z,999.6
2016-08-18T14:00:50.053Z,999.59
2016-08-18T14:01:49.722Z,999.68
2016-08-18T14:02:49.813Z,999.74
2016-08-18T14:03:50.240Z,999.83
2016-08-18T14:04:49.982Z,999.82
2016-08-18T14:05:50.123Z,999.87
2016-08-18T14:06:50.382Z,999.69
2016-08-18T14:07:50.034Z,999.61
2016-08-18T14:08:50.570Z,999.8
2016-08-18T14:09:50.543Z,999.97
2016-08-18T14:10:50.367Z,999.75
2016-08-18T14:11:50.677Z,999.57
2016-08-18T14:12:50.899Z,999.48
2016-08-18T14:13:50.406Z,999.4
2016-08-18T14:14:51.167Z,999.59
2016-08-18T14:15:50.799Z,999.68
2016-08-18T14:16:50.618Z,999.36
2016-08-18T14:17:50.487Z,999.46
2016-08-18T14:18:50.828Z,999.66
2016-08-18T14:19:50.801Z,999.65
2016-08-18T14:20:50.977Z,999.68
2016-08-18T14:21:50.818Z,999.86
2016-08-18T14:22:50.659Z,999.77
2016-08-18T14:23:50.812Z,999.8
2016-08-18T14:24:50.760Z,999.54
2016-08-18T14:25:50.973Z,999.53
2016-08-18T14:26:51.802Z,999.62
2016-08-18T14:27:51.557Z,999.76
2016-08-18T14:28:51.427Z,999.86
2016-08-18T14:29:51.648Z,999.87
2016-08-18T14:30:51.964Z,1000
2016-08-18T14:31:51.254Z,999.88
2016-08-18T14:32:51.441Z,999.92
2016-08-18T14:33:51.459Z,1000.14
2016-08-18T14:34:51.189Z,1000.4
2016-08-18T14:35:51.404Z,1000.41
2016-08-18T14:36:51.621Z,1000.44
2016-08-18T14:37:51.565Z,1000.43
2016-08-18T14:38:51.551Z,999.96
2016-08-18T14:39:51.433Z,1000.17
2016-08-18T14:40:51.700Z,1000.35
2016-08-18T14:41:51.375Z,1000.01
2016-08-18T14:42:51.520Z,1000.42
2016-08-18T14:43:51.339Z,1000.03
2016-08-18T14:44:51.781Z,1000.12
2016-08-18T14:45:52.097Z,1000.53
2016-08-18T14:46:51.738Z,1000.16
2016-08-18T14:47:51.870Z,1000.25
2016-08-18T14:48:51.563Z,1000.67
2016-08-18T14:49:51.688Z,1000.51
2016-08-18T14:50:51.693Z,1000.35
2016-08-18T14:51:51.722Z,1000.42
2016-08-18T14:52:51.940Z,1000.29
2016-08-18T14:53:52.117Z,1000.22
2016-08-18T14:54:51.833Z,1000.31
2016-08-18T14:55:51.888Z,1000.26
2016-08-18T14:56:52.666Z,1000.36
2016-08-18T14:57:52.201Z,1000.37
2016-08-18T14:58:52.048Z,1000.32
2016-08-18T14:59:52.438Z,1000.48
2016-08-18T15:00:52.210Z,1000.44
2016-08-18T15:01:53.126Z,1000.44
2016-08-18T15:02:52.422Z,1000.47
2016-08-18T15:03:52.979Z,1000.48
2016-08-18T15:04:52.371Z,1000.32
2016-08-18T15:05:52.336Z,1000.32
2016-08-18T15:06:52.333Z,1000.52
2016-08-18T15:07:52.582Z,1000.34
2016-08-18T15:08:52.528Z,1000.2
2016-08-18T15:09:52.810Z,1000.19
2016-08-18T15:10:52.751Z,1000.17
2016-08-18T15:11:53.052Z,1000.06
2016-08-18T15:12:52.632Z,1000.03
2016-08-18T15:13:52.577Z,1000.02
2016-08-18T15:14:53.440Z,1000
2016-08-18T15:15:52.942Z,1000.01
2016-08-18T15:16:52.855Z,999.93
2016-08-18T15:17:52.992Z,999.9
2016-08-18T15:18:53.344Z,999.86
2016-08-18T15:19:53.021Z,999.79
2016-08-18T15:20:53.025Z,999.8
2016-08-18T15:21:53.518Z,999.76
2016-08-18T15:22:53.243Z,999.74
2016-08-18T15:23:52.994Z,999.8
2016-08-18T15:24:53.190Z,999.78
2016-08-18T15:25:52.967Z,999.87
2016-08-18T15:26:53.179Z,999.84
2016-08-18T15:27:53.690Z,999.85
2016-08-18T15:28:53.709Z,999.92
2016-08-18T15:29:53.613Z,999.9
2016-08-18T15:30:54.124Z,999.94
2016-08-18T15:31:53.686Z,999.95
2016-08-18T15:32:53.961Z,1000.06
2016-08-18T15:33:54.260Z,999.96
2016-08-18T15:34:53.439Z,1000.19
2016-08-18T15:35:54.004Z,1000.32
2016-08-18T15:36:54.016Z,1000.26
2016-08-18T15:37:53.884Z,1000.26
2016-08-18T15:38:54.251Z,1000.14
2016-08-18T15:39:53.715Z,1000.13
2016-08-18T15:40:53.789Z,1000.12
2016-08-18T15:41:54.145Z,1000.09
2016-08-18T15:42:53.941Z,1000.01
2016-08-18T15:43:54.006Z,1000.18
2016-08-18T15:44:53.783Z,1000.39
2016-08-18T15:45:54.290Z,1000.47
2016-08-18T15:46:53.703Z,1000.54
2016-08-18T15:47:54.134Z,1000.48
2016-08-18T15:48:54.171Z,1000.47
2016-08-18T15:49:54.685Z,1000.39
2016-08-18T15:50:54.085Z,1000.52
2016-08-18T15:51:54.213Z,1000.71
2016-08-18T15:52:54.497Z,1000.54
2016-08-18T15:53:54.175Z,1000.49
2016-08-18T15:54:54.363Z,1000.57
2016-08-18T15:55:54.250Z,1000.39
2016-08-18T15:56:54.373Z,1000.38
2016-08-18T15:57:54.595Z,1000.77
2016-08-18T15:58:54.553Z,1001.07
2016-08-18T15:59:54.595Z,1001.26
2016-08-18T16:00:54.759Z,1001.13
2016-08-18T16:01:54.839Z,1001.23
2016-08-18T16:02:54.489Z,1001.39
2016-08-18T16:03:54.559Z,1001.54
2016-08-18T16:04:55.468Z,1001.54
2016-08-18T16:05:54.894Z,1001.5
2016-08-18T16:06:54.888Z,1001.34
2016-08-18T16:07:54.905Z,1001.4
2016-08-18T16:08:54.627Z,1001.65
2016-08-18T16:09:55.019Z,1001.61
2016-08-18T16:10:54.677Z,1001.76
2016-08-18T16:11:55.254Z,1001.72
2016-08-18T16:12:55.843Z,1001.53
2016-08-18T16:13:55.430Z,1001.7
2016-08-18T16:14:55.209Z,1002.05
2016-08-18T16:15:55.016Z,1002.05
2016-08-18T16:16:55.458Z,1001.98
2016-08-18T16:17:55.221Z,1002.18
2016-08-18T16:18:55.175Z,1002.45
2016-08-18T16:19:55.317Z,1002.79
2016-08-18T16:20:55.804Z,1002.95
2016-08-18T16:21:55.420Z,1003.09
2016-08-18T16:22:55.484Z,1003.37
2016-08-18T16:23:55.404Z,1003.19
2016-08-18T16:24:55.411Z,1003.33
2016-08-18T16:25:55.411Z,1003.16
2016-08-18T16:26:55.778Z,1002.88
2016-08-18T16:27:55.285Z,1002.5
2016-08-18T16:28:56.147Z,1002.45
2016-08-18T16:29:55.514Z,1002.35
2016-08-18T16:30:55.509Z,1002.17
2016-08-18T16:31:56.136Z,1001.4
2016-08-18T16:32:55.490Z,1001.22
2016-08-18T16:33:55.797Z,1001.11
2016-08-18T16:34:55.517Z,1000.85
2016-08-18T16:35:55.834Z,1000.59
2016-08-18T16:36:55.960Z,1000.41
2016-08-18T16:37:55.957Z,1000.03
2016-08-18T16:38:55.755Z,999.77
2016-08-18T16:39:55.789Z,999.57
2016-08-18T16:40:55.923Z,999.42
2016-08-18T16:41:55.954Z,999.25
2016-08-18T16:42:56.680Z,999.14
2016-08-18T16:43:56.074Z,998.99
2016-08-18T16:44:56.217Z,998.95
2016-08-18T16:45:56.145Z,998.88
2016-08-18T16:46:56.230Z,998.83
2016-08-18T16:47:56.637Z,998.76
2016-08-18T16:48:56.175Z,998.72
2016-08-18T16:49:56.853Z,998.74
2016-08-18T16:50:56.514Z,998.67
2016-08-18T16:51:56.565Z,998.63
2016-08-18T16:52:56.922Z,998.56
2016-08-18T16:53:56.100Z,998.5
2016-08-18T16:54:56.852Z,998.47
2016-08-18T16:55:56.258Z,998.42
2016-08-18T16:56:56.609Z,998.41
2016-08-18T16:57:56.789Z,998.41
2016-08-18T16:58:56.889Z,998.35
2016-08-18T16:59:57.155Z,998.34
2016-08-18T17:00:56.727Z,998.35
2016-08-18T17:01:57.685Z,998.36
2016-08-18T17:02:57.021Z,998.43
2016-08-18T17:03:57.003Z,998.43
2016-08-18T17:04:56.894Z,998.45
2016-08-18T17:05:57.854Z,998.44
2016-08-18T17:06:57.467Z,998.43
2016-08-18T17:07:57.160Z,998.44
2016-08-18T17:08:56.762Z,998.43
2016-08-18T17:09:57.373Z,998.42
2016-08-18T17:10:57.281Z,998.38
2016-08-18T17:11:57.220Z,998.38
2016-08-18T17:12:57.002Z,998.35
2016-08-18T17:13:57.406Z,998.39
2016-08-18T17:14:57.032Z,998.37
2016-08-18T17:15:57.185Z,998.36
2016-08-18T17:16:57.140Z,998.32
2016-08-18T17:17:57.310Z,998.33
2016-08-18T17:18:57.216Z,998.27
2016-08-18T17:19:57.224Z,998.31
2016-08-18T17:20:57.467Z,998.27
2016-08-18T17:21:57.829Z,998.28
2016-08-18T17:22:57.320Z,998.29
2016-08-18T17:23:57.605Z,998.35
2016-08-18T17:24:57.638Z,998.36
2016-08-18T17:25:57.209Z,998.36
2016-08-18T17:26:57.536Z,998.39
2016-08-18T17:27:57.723Z,998.4
2016-08-18T17:28:57.507Z,998.41
2016-08-18T17:29:57.956Z,998.38
2016-08-18T17:30:57.882Z,998.38
2016-08-18T17:31:58.940Z,998.37
2016-08-18T17:32:57.563Z,998.38
2016-08-18T17:33:57.608Z,998.41
2016-08-18T17:34:57.777Z,998.37
2016-08-18T17:35:57.769Z,998.42
2016-08-18T17:36:57.920Z,998.4
2016-08-18T17:37:57.640Z,998.42
2016-08-18T17:38:57.878Z,998.43
2016-08-18T17:39:57.950Z,998.44
2016-08-18T17:40:57.768Z,998.44
2016-08-18T17:41:58.579Z,998.41
2016-08-18T17:42:57.961Z,998.42
2016-08-18T17:43:57.985Z,998.42
2016-08-18T17:44:58.065Z,998.39
2016-08-18T17:45:58.088Z,998.4
2016-08-18T17:46:58.787Z,998.43
2016-08-18T17:47:58.381Z,998.41
2016-08-18T17:48:58.135Z,998.39
2016-08-18T17:49:58.317Z,998.33
2016-08-18T17:50:58.336Z,998.34
2016-08-18T17:51:58.084Z,998.3
2016-08-18T17:52:58.344Z,998.35
2016-08-18T17:53:58.372Z,998.33
2016-08-18T17:54:58.631Z,998.32
2016-08-18T17:55:58.416Z,998.34
2016-08-18T17:56:58.468Z,998.3
2016-08-18T17:57:58.465Z,998.34
2016-08-18T17:58:58.630Z,998.27
2016-08-18T17:59:58.464Z,998.28
2016-08-18T18:00:58.563Z,998.29
2016-08-18T18:01:58.418Z,998.32
2016-08-18T18:02:58.530Z,998.33
2016-08-18T18:03:58.912Z,998.31
2016-08-18T18:04:58.609Z,998.34
2016-08-18T18:05:59.381Z,998.34
2016-08-18T18:06:58.803Z,998.32
2016-08-18T18:07:59.139Z,998.34
2016-08-18T18:08:59.545Z,998.34
2016-08-18T18:09:59.312Z,998.35
2016-08-18T18:10:58.852Z,998.32
2016-08-18T18:11:58.922Z,998.36
2016-08-18T18:12:58.968Z,998.38
2016-08-18T18:13:59.465Z,998.35
2016-08-18T18:14:59.650Z,998.37
2016-08-18T18:15:59.552Z,998.37
2016-08-18T18:16:58.924Z,998.41
2016-08-18T18:17:59.177Z,998.42
2016-08-18T18:18:59.061Z,998.45
2016-08-18T18:19:59.172Z,998.42
2016-08-18T18:20:59.262Z,998.46
2016-08-18T18:21:59.578Z,998.42
2016-08-18T18:22:59.495Z,998.48
2016-08-18T18:23:59.998Z,998.46
2016-08-18T18:24:59.226Z,998.45
2016-08-18T18:25:59.313Z,998.47
2016-08-18T18:26:59.471Z,998.51
2016-08-18T18:28:00.756Z,998.53
2016-08-18T18:28:59.520Z,998.51
2016-08-18T18:29:59.268Z,998.52
2016-08-18T18:30:59.278Z,998.54
2016-08-18T18:31:59.653Z,998.55
2016-08-18T18:32:59.279Z,998.57
2016-08-18T18:34:00.160Z,998.58
2016-08-18T18:34:59.596Z,998.54
2016-08-18T18:35:59.390Z,998.59
2016-08-18T18:37:00.103Z,998.61
2016-08-18T18:37:59.854Z,998.57
2016-08-18T18:38:59.936Z,998.6
2016-08-18T18:39:59.914Z,998.6
2016-08-18T18:40:59.667Z,998.61
2016-08-18T18:42:00.037Z,998.61
2016-08-18T18:43:00.157Z,998.63
2016-08-18T18:44:00.155Z,998.64
2016-08-18T18:45:00.011Z,998.68
2016-08-18T18:45:59.960Z,998.72
2016-08-18T18:46:59.989Z,998.71
2016-08-18T18:47:59.852Z,998.68
2016-08-18T18:49:00.043Z,998.75
2016-08-18T18:50:00.244Z,998.74
2016-08-18T18:50:59.862Z,998.76
2016-08-18T18:52:00.494Z,998.75
2016-08-18T18:53:00.243Z,998.77
2016-08-18T18:54:00.514Z,998.75
2016-08-18T18:55:00.597Z,998.75
2016-08-18T18:56:00.296Z,998.75
2016-08-18T18:57:01.214Z,998.79
2016-08-18T18:58:00.221Z,998.79
2016-08-18T18:59:00.829Z,998.79
2016-08-18T19:00:01.073Z,998.83
2016-08-18T19:01:00.230Z,998.87
2016-08-18T19:02:00.826Z,998.86
2016-08-18T19:03:00.546Z,998.88
2016-08-18T19:04:01.187Z,998.9
2016-08-18T19:05:00.447Z,998.93
2016-08-18T19:06:00.546Z,998.94
2016-08-18T19:07:01.002Z,998.96
2016-08-18T19:08:00.751Z,998.93